Huvudsida
METAR-TAF:

METAR-TAF

Flygplatser :

Port Heiden, Alaska, USA

latitud: 56-57N, longitud: 158-38W, höjd: 29 m

Aktuellt väderrapport

Denna rapport gjordes för 25 minuter sedan, klockan 12:11 UTC
Vind 10 kt från väst/sydväst
Temperatur 7°C
Fuktighet 93%
Tryck 1017 hPa
Sikt: 8.0 km
Mulet på en höjd av 400 ft
lätt regn, fuktdis

METAR: PAPH 241211Z AUTO 24010KT 5SM -RA BR OVC004 07/06 A3003 RMK AO2 P0000 $

Tid: 04:36 (12:36 UTC)


TAF: saknas

Aktuella väderrapporter och prognoser från 4000 flygplatser (METAR- och TAF-rapporter).

De tillgängliga stationerna syns som gula och röda prickar på kartan.

För musen över prickarna för att se namnen på stationerna.

Klicka sedan för att få väderrapporter och prognoser.

För att ändra kartan: Klicka på de gröna knapparna med ett svart kors på för att zooma in; den gröna knappen med ett streck på för att zooma ut; eller på de gröna pilarna för angränsande kartor.


METAR-TAF: